sensor_id;sensor_type;location;lat;lon;timestamp;P1;durP1;ratioP1;P2;durP2;ratioP2
55758;SDS011;41678;52.126;20.664;2023-04-12T00:01:56;9.15;;;3.47;;
55758;SDS011;41678;52.126;20.664;2023-04-12T00:07:16;6.32;;;2.83;;
55758;SDS011;41678;52.126;20.664;2023-04-12T00:12:36;8.60;;;3.22;;
55758;SDS011;41678;52.126;20.664;2023-04-12T00:17:56;8.63;;;3.03;;
55758;SDS011;41678;52.126;20.664;2023-04-12T00:23:16;8.63;;;3.05;;
55758;SDS011;41678;52.126;20.664;2023-04-12T00:28:36;7.35;;;3.40;;
55758;SDS011;41678;52.126;20.664;2023-04-12T00:33:55;7.60;;;3.15;;
55758;SDS011;41678;52.126;20.664;2023-04-12T00:39:15;9.32;;;3.92;;
55758;SDS011;41678;52.126;20.664;2023-04-12T00:44:34;8.90;;;3.78;;
55758;SDS011;41678;52.126;20.664;2023-04-12T00:49:54;8.05;;;3.30;;
55758;SDS011;41678;52.126;20.664;2023-04-12T00:55:15;8.10;;;4.30;;
55758;SDS011;41678;52.126;20.664;2023-04-12T01:00:34;17.95;;;5.70;;
55758;SDS011;41678;52.126;20.664;2023-04-12T01:11:37;13.90;;;7.00;;
55758;SDS011;41678;52.126;20.664;2023-04-12T01:17:03;14.48;;;7.30;;
55758;SDS011;41678;52.126;20.664;2023-04-12T01:28:12;16.88;;;8.23;;
55758;SDS011;41678;52.126;20.664;2023-04-12T01:33:35;14.80;;;8.27;;
55758;SDS011;41678;52.126;20.664;2023-04-12T01:38:56;18.20;;;8.43;;
55758;SDS011;41678;52.126;20.664;2023-04-12T01:44:16;15.98;;;7.95;;
55758;SDS011;41678;52.126;20.664;2023-04-12T01:49:43;18.67;;;8.43;;
55758;SDS011;41678;52.126;20.664;2023-04-12T01:55:21;17.38;;;8.13;;
55758;SDS011;41678;52.126;20.664;2023-04-12T02:00:43;20.60;;;8.68;;
55758;SDS011;41678;52.126;20.664;2023-04-12T02:06:04;19.60;;;7.22;;
55758;SDS011;41678;52.126;20.664;2023-04-12T02:11:26;18.95;;;7.70;;
55758;SDS011;41678;52.126;20.664;2023-04-12T02:16:45;19.45;;;8.75;;
55758;SDS011;41678;52.126;20.664;2023-04-12T02:22:06;21.55;;;8.77;;
55758;SDS011;41678;52.126;20.664;2023-04-12T02:27:26;17.73;;;8.32;;
55758;SDS011;41678;52.126;20.664;2023-04-12T02:32:45;17.98;;;8.45;;
55758;SDS011;41678;52.126;20.664;2023-04-12T02:38:17;17.13;;;7.97;;
55758;SDS011;41678;52.126;20.664;2023-04-12T02:43:37;16.45;;;7.97;;
55758;SDS011;41678;52.126;20.664;2023-04-12T02:49:01;18.50;;;7.60;;
55758;SDS011;41678;52.126;20.664;2023-04-12T02:54:28;17.20;;;7.38;;
55758;SDS011;41678;52.126;20.664;2023-04-12T02:59:52;16.55;;;7.50;;
55758;SDS011;41678;52.126;20.664;2023-04-12T03:05:18;14.60;;;6.80;;
55758;SDS011;41678;52.126;20.664;2023-04-12T03:10:38;19.33;;;8.15;;
55758;SDS011;41678;52.126;20.664;2023-04-12T03:15:58;17.50;;;7.90;;
55758;SDS011;41678;52.126;20.664;2023-04-12T03:21:26;17.92;;;7.70;;
55758;SDS011;41678;52.126;20.664;2023-04-12T03:26:48;17.65;;;7.80;;
55758;SDS011;41678;52.126;20.664;2023-04-12T03:32:14;19.00;;;9.40;;
55758;SDS011;41678;52.126;20.664;2023-04-12T03:37:35;18.17;;;8.67;;
55758;SDS011;41678;52.126;20.664;2023-04-12T03:42:56;19.65;;;8.10;;
55758;SDS011;41678;52.126;20.664;2023-04-12T03:48:16;14.68;;;7.43;;
55758;SDS011;41678;52.126;20.664;2023-04-12T03:53:39;20.02;;;9.10;;
55758;SDS011;41678;52.126;20.664;2023-04-12T03:59:01;18.95;;;8.32;;
55758;SDS011;41678;52.126;20.664;2023-04-12T04:04:22;17.27;;;8.70;;
55758;SDS011;41678;52.126;20.664;2023-04-12T04:09:46;21.52;;;9.35;;
55758;SDS011;41678;52.126;20.664;2023-04-12T04:15:06;20.25;;;8.90;;
55758;SDS011;41678;52.126;20.664;2023-04-12T04:20:27;18.77;;;9.52;;
55758;SDS011;41678;52.126;20.664;2023-04-12T04:25:46;24.20;;;9.82;;
55758;SDS011;41678;52.126;20.664;2023-04-12T04:31:06;21.92;;;9.40;;
55758;SDS011;41678;52.126;20.664;2023-04-12T04:36:35;19.58;;;8.88;;
55758;SDS011;41678;52.126;20.664;2023-04-12T04:41:57;17.40;;;9.20;;
55758;SDS011;41678;52.126;20.664;2023-04-12T04:47:44;20.23;;;8.93;;
55758;SDS011;41678;52.126;20.664;2023-04-12T04:53:04;20.35;;;10.27;;
55758;SDS011;41678;52.126;20.664;2023-04-12T04:58:26;18.23;;;8.88;;
55758;SDS011;41678;52.126;20.664;2023-04-12T05:03:46;18.48;;;9.15;;
55758;SDS011;41678;52.126;20.664;2023-04-12T05:09:09;23.20;;;9.93;;
55758;SDS011;41678;52.126;20.664;2023-04-12T05:14:35;23.15;;;10.18;;
55758;SDS011;41678;52.126;20.664;2023-04-12T05:25:16;18.52;;;9.50;;
55758;SDS011;41678;52.126;20.664;2023-04-12T05:30:45;17.70;;;9.18;;
55758;SDS011;41678;52.126;20.664;2023-04-12T05:36:10;21.90;;;8.60;;
55758;SDS011;41678;52.126;20.664;2023-04-12T05:41:30;19.30;;;9.88;;
55758;SDS011;41678;52.126;20.664;2023-04-12T05:46:50;23.25;;;10.50;;
55758;SDS011;41678;52.126;20.664;2023-04-12T05:52:11;20.02;;;9.57;;
55758;SDS011;41678;52.126;20.664;2023-04-12T05:57:31;20.45;;;8.98;;
55758;SDS011;41678;52.126;20.664;2023-04-12T06:02:51;23.67;;;10.18;;
55758;SDS011;41678;52.126;20.664;2023-04-12T06:08:11;19.52;;;10.65;;
55758;SDS011;41678;52.126;20.664;2023-04-12T06:13:33;20.08;;;9.07;;
55758;SDS011;41678;52.126;20.664;2023-04-12T06:18:54;21.65;;;10.07;;
55758;SDS011;41678;52.126;20.664;2023-04-12T06:24:13;17.67;;;8.70;;
55758;SDS011;41678;52.126;20.664;2023-04-12T06:29:33;24.92;;;10.13;;
55758;SDS011;41678;52.126;20.664;2023-04-12T06:34:53;20.33;;;9.60;;
55758;SDS011;41678;52.126;20.664;2023-04-12T06:40:13;19.73;;;10.13;;
55758;SDS011;41678;52.126;20.664;2023-04-12T06:45:32;21.27;;;9.63;;
55758;SDS011;41678;52.126;20.664;2023-04-12T06:50:52;19.40;;;9.73;;
55758;SDS011;41678;52.126;20.664;2023-04-12T06:56:11;20.90;;;9.98;;
55758;SDS011;41678;52.126;20.664;2023-04-12T07:01:31;21.25;;;9.48;;
55758;SDS011;41678;52.126;20.664;2023-04-12T07:06:50;20.35;;;8.65;;
55758;SDS011;41678;52.126;20.664;2023-04-12T07:12:10;19.40;;;9.43;;
55758;SDS011;41678;52.126;20.664;2023-04-12T07:17:29;19.25;;;8.95;;
55758;SDS011;41678;52.126;20.664;2023-04-12T07:22:49;21.17;;;10.63;;
55758;SDS011;41678;52.126;20.664;2023-04-12T07:28:08;18.63;;;9.30;;
55758;SDS011;41678;52.126;20.664;2023-04-12T07:33:27;26.23;;;10.63;;
55758;SDS011;41678;52.126;20.664;2023-04-12T07:38:47;16.55;;;8.63;;
55758;SDS011;41678;52.126;20.664;2023-04-12T07:44:07;24.75;;;10.93;;
55758;SDS011;41678;52.126;20.664;2023-04-12T07:49:27;20.13;;;9.38;;
55758;SDS011;41678;52.126;20.664;2023-04-12T07:54:47;21.67;;;9.82;;
55758;SDS011;41678;52.126;20.664;2023-04-12T08:00:07;19.58;;;10.07;;
55758;SDS011;41678;52.126;20.664;2023-04-12T08:05:33;21.65;;;10.20;;
55758;SDS011;41678;52.126;20.664;2023-04-12T08:10:53;21.05;;;8.52;;
55758;SDS011;41678;52.126;20.664;2023-04-12T08:16:13;32.72;;;10.15;;
55758;SDS011;41678;52.126;20.664;2023-04-12T08:21:32;24.65;;;8.65;;
55758;SDS011;41678;52.126;20.664;2023-04-12T08:26:52;20.83;;;10.00;;
55758;SDS011;41678;52.126;20.664;2023-04-12T08:32:11;22.75;;;8.05;;
55758;SDS011;41678;52.126;20.664;2023-04-12T08:37:31;19.98;;;8.25;;
55758;SDS011;41678;52.126;20.664;2023-04-12T08:42:51;15.30;;;7.28;;
55758;SDS011;41678;52.126;20.664;2023-04-12T08:48:11;14.27;;;7.03;;
55758;SDS011;41678;52.126;20.664;2023-04-12T08:53:31;16.90;;;7.90;;
55758;SDS011;41678;52.126;20.664;2023-04-12T08:58:51;18.23;;;7.85;;
55758;SDS011;41678;52.126;20.664;2023-04-12T09:04:11;18.98;;;8.30;;
55758;SDS011;41678;52.126;20.664;2023-04-12T09:09:44;18.08;;;8.32;;
55758;SDS011;41678;52.126;20.664;2023-04-12T09:20:27;17.63;;;8.25;;
55758;SDS011;41678;52.126;20.664;2023-04-12T09:25:47;18.42;;;8.27;;
55758;SDS011;41678;52.126;20.664;2023-04-12T09:31:09;17.20;;;8.27;;
55758;SDS011;41678;52.126;20.664;2023-04-12T09:36:38;17.23;;;7.35;;
55758;SDS011;41678;52.126;20.664;2023-04-12T09:42:10;17.45;;;7.68;;
55758;SDS011;41678;52.126;20.664;2023-04-12T09:47:37;20.95;;;8.38;;
55758;SDS011;41678;52.126;20.664;2023-04-12T09:52:58;17.88;;;7.78;;
55758;SDS011;41678;52.126;20.664;2023-04-12T09:58:19;17.95;;;6.72;;
55758;SDS011;41678;52.126;20.664;2023-04-12T10:03:40;16.55;;;8.77;;
55758;SDS011;41678;52.126;20.664;2023-04-12T10:09:03;21.60;;;8.45;;
55758;SDS011;41678;52.126;20.664;2023-04-12T10:14:26;17.35;;;7.32;;
55758;SDS011;41678;52.126;20.664;2023-04-12T10:19:47;17.23;;;7.72;;
55758;SDS011;41678;52.126;20.664;2023-04-12T10:25:14;15.10;;;7.50;;
55758;SDS011;41678;52.126;20.664;2023-04-12T10:30:36;16.73;;;7.88;;
55758;SDS011;41678;52.126;20.664;2023-04-12T10:35:57;16.38;;;8.02;;
55758;SDS011;41678;52.126;20.664;2023-04-12T10:41:19;18.65;;;8.30;;
55758;SDS011;41678;52.126;20.664;2023-04-12T10:57:44;25.60;;;8.82;;
55758;SDS011;41678;52.126;20.664;2023-04-12T11:03:06;22.08;;;9.93;;
55758;SDS011;41678;52.126;20.664;2023-04-12T11:08:28;17.65;;;9.65;;
55758;SDS011;41678;52.126;20.664;2023-04-12T11:14:15;16.30;;;9.20;;
55758;SDS011;41678;52.126;20.664;2023-04-12T11:19:37;15.50;;;8.40;;
55758;SDS011;41678;52.126;20.664;2023-04-12T11:25:01;26.08;;;10.07;;
55758;SDS011;41678;52.126;20.664;2023-04-12T11:30:23;20.33;;;9.68;;
55758;SDS011;41678;52.126;20.664;2023-04-12T11:35:42;22.10;;;10.35;;
55758;SDS011;41678;52.126;20.664;2023-04-12T11:41:03;18.88;;;9.32;;
55758;SDS011;41678;52.126;20.664;2023-04-12T11:46:25;20.92;;;9.65;;
55758;SDS011;41678;52.126;20.664;2023-04-12T11:51:59;19.20;;;9.98;;
55758;SDS011;41678;52.126;20.664;2023-04-12T11:57:25;19.17;;;10.45;;
55758;SDS011;41678;52.126;20.664;2023-04-12T12:02:47;20.08;;;9.05;;
55758;SDS011;41678;52.126;20.664;2023-04-12T12:08:07;18.52;;;9.25;;
55758;SDS011;41678;52.126;20.664;2023-04-12T12:13:42;17.98;;;10.02;;
55758;SDS011;41678;52.126;20.664;2023-04-12T12:19:09;20.33;;;10.35;;
55758;SDS011;41678;52.126;20.664;2023-04-12T12:24:28;23.23;;;10.52;;
55758;SDS011;41678;52.126;20.664;2023-04-12T12:29:48;17.25;;;9.52;;
55758;SDS011;41678;52.126;20.664;2023-04-12T12:35:12;17.50;;;8.52;;
55758;SDS011;41678;52.126;20.664;2023-04-12T12:40:32;19.70;;;9.77;;
55758;SDS011;41678;52.126;20.664;2023-04-12T12:45:51;21.55;;;10.18;;
55758;SDS011;41678;52.126;20.664;2023-04-12T12:51:11;19.67;;;9.90;;
55758;SDS011;41678;52.126;20.664;2023-04-12T12:56:35;17.13;;;9.40;;
55758;SDS011;41678;52.126;20.664;2023-04-12T13:01:55;16.98;;;8.77;;
55758;SDS011;41678;52.126;20.664;2023-04-12T13:07:15;18.95;;;9.38;;
55758;SDS011;41678;52.126;20.664;2023-04-12T13:12:34;20.80;;;11.05;;
55758;SDS011;41678;52.126;20.664;2023-04-12T13:17:55;20.30;;;9.15;;
55758;SDS011;41678;52.126;20.664;2023-04-12T13:23:14;17.95;;;9.23;;
55758;SDS011;41678;52.126;20.664;2023-04-12T13:28:34;16.92;;;9.32;;
55758;SDS011;41678;52.126;20.664;2023-04-12T13:33:59;17.80;;;9.45;;
55758;SDS011;41678;52.126;20.664;2023-04-12T13:39:18;18.42;;;8.73;;
55758;SDS011;41678;52.126;20.664;2023-04-12T13:44:38;18.98;;;9.02;;
55758;SDS011;41678;52.126;20.664;2023-04-12T13:49:59;18.48;;;9.02;;
55758;SDS011;41678;52.126;20.664;2023-04-12T13:55:19;18.75;;;8.65;;
55758;SDS011;41678;52.126;20.664;2023-04-12T14:00:39;20.58;;;9.57;;
55758;SDS011;41678;52.126;20.664;2023-04-12T14:05:59;17.13;;;8.38;;
55758;SDS011;41678;52.126;20.664;2023-04-12T14:11:21;18.98;;;8.55;;
55758;SDS011;41678;52.126;20.664;2023-04-12T14:16:42;22.60;;;9.30;;
55758;SDS011;41678;52.126;20.664;2023-04-12T14:22:03;17.55;;;9.00;;
55758;SDS011;41678;52.126;20.664;2023-04-12T14:27:22;19.40;;;8.65;;
55758;SDS011;41678;52.126;20.664;2023-04-12T14:32:42;19.88;;;9.20;;
55758;SDS011;41678;52.126;20.664;2023-04-12T14:38:01;17.33;;;8.55;;
55758;SDS011;41678;52.126;20.664;2023-04-12T14:43:23;15.77;;;8.57;;
55758;SDS011;41678;52.126;20.664;2023-04-12T14:48:42;17.92;;;8.02;;
55758;SDS011;41678;52.126;20.664;2023-04-12T14:54:02;14.18;;;7.75;;
55758;SDS011;41678;52.126;20.664;2023-04-12T14:59:22;18.23;;;8.75;;
55758;SDS011;41678;52.126;20.664;2023-04-12T15:04:42;16.33;;;7.70;;
55758;SDS011;41678;52.126;20.664;2023-04-12T15:10:02;14.00;;;6.20;;
55758;SDS011;41678;52.126;20.664;2023-04-12T15:15:23;15.63;;;7.53;;
55758;SDS011;41678;52.126;20.664;2023-04-12T15:20:42;11.70;;;6.15;;
55758;SDS011;41678;52.126;20.664;2023-04-12T15:26:02;14.27;;;6.72;;
55758;SDS011;41678;52.126;20.664;2023-04-12T15:31:22;13.18;;;6.63;;
55758;SDS011;41678;52.126;20.664;2023-04-12T15:36:41;13.50;;;6.88;;
55758;SDS011;41678;52.126;20.664;2023-04-12T15:42:02;14.68;;;6.63;;
55758;SDS011;41678;52.126;20.664;2023-04-12T15:47:23;12.52;;;6.60;;
55758;SDS011;41678;52.126;20.664;2023-04-12T15:52:42;13.80;;;7.00;;
55758;SDS011;41678;52.126;20.664;2023-04-12T15:58:02;15.20;;;6.18;;
55758;SDS011;41678;52.126;20.664;2023-04-12T16:03:22;16.10;;;6.63;;
55758;SDS011;41678;52.126;20.664;2023-04-12T16:08:43;14.17;;;6.87;;
55758;SDS011;41678;52.126;20.664;2023-04-12T16:14:02;13.52;;;6.95;;
55758;SDS011;41678;52.126;20.664;2023-04-12T16:19:22;14.88;;;6.82;;
55758;SDS011;41678;52.126;20.664;2023-04-12T16:24:41;18.98;;;7.00;;
55758;SDS011;41678;52.126;20.664;2023-04-12T16:30:01;19.83;;;7.55;;
55758;SDS011;41678;52.126;20.664;2023-04-12T16:35:21;14.27;;;7.43;;
55758;SDS011;41678;52.126;20.664;2023-04-12T16:40:40;18.38;;;8.50;;
55758;SDS011;41678;52.126;20.664;2023-04-12T16:46:03;17.08;;;8.05;;
55758;SDS011;41678;52.126;20.664;2023-04-12T16:51:23;12.60;;;6.60;;
55758;SDS011;41678;52.126;20.664;2023-04-12T16:56:44;18.50;;;6.70;;
55758;SDS011;41678;52.126;20.664;2023-04-12T17:02:05;16.45;;;8.10;;
55758;SDS011;41678;52.126;20.664;2023-04-12T17:07:26;17.40;;;7.18;;
55758;SDS011;41678;52.126;20.664;2023-04-12T17:12:47;14.77;;;6.75;;
55758;SDS011;41678;52.126;20.664;2023-04-12T17:18:10;16.10;;;6.95;;
55758;SDS011;41678;52.126;20.664;2023-04-12T17:23:29;11.60;;;6.00;;
55758;SDS011;41678;52.126;20.664;2023-04-12T17:28:49;14.70;;;6.30;;
55758;SDS011;41678;52.126;20.664;2023-04-12T17:34:09;15.93;;;6.38;;
55758;SDS011;41678;52.126;20.664;2023-04-12T17:39:28;16.25;;;8.52;;
55758;SDS011;41678;52.126;20.664;2023-04-12T17:44:48;17.33;;;6.93;;
55758;SDS011;41678;52.126;20.664;2023-04-12T17:50:08;14.35;;;6.32;;
55758;SDS011;41678;52.126;20.664;2023-04-12T17:55:29;19.30;;;7.77;;
55758;SDS011;41678;52.126;20.664;2023-04-12T18:00:48;16.08;;;7.03;;
55758;SDS011;41678;52.126;20.664;2023-04-12T18:06:08;19.95;;;6.40;;
55758;SDS011;41678;52.126;20.664;2023-04-12T18:11:27;13.68;;;6.32;;
55758;SDS011;41678;52.126;20.664;2023-04-12T18:16:47;16.08;;;7.22;;
55758;SDS011;41678;52.126;20.664;2023-04-12T18:22:07;21.48;;;9.18;;
55758;SDS011;41678;52.126;20.664;2023-04-12T18:27:26;19.45;;;8.48;;
55758;SDS011;41678;52.126;20.664;2023-04-12T18:32:46;26.10;;;8.98;;
55758;SDS011;41678;52.126;20.664;2023-04-12T18:38:06;27.10;;;8.18;;
55758;SDS011;41678;52.126;20.664;2023-04-12T18:43:26;24.10;;;8.95;;
55758;SDS011;41678;52.126;20.664;2023-04-12T18:48:45;26.55;;;10.70;;
55758;SDS011;41678;52.126;20.664;2023-04-12T18:54:06;23.98;;;9.50;;
55758;SDS011;41678;52.126;20.664;2023-04-12T18:59:30;22.38;;;8.57;;
55758;SDS011;41678;52.126;20.664;2023-04-12T19:04:50;23.60;;;8.63;;
55758;SDS011;41678;52.126;20.664;2023-04-12T19:10:10;23.52;;;9.95;;
55758;SDS011;41678;52.126;20.664;2023-04-12T19:15:30;20.13;;;9.73;;
55758;SDS011;41678;52.126;20.664;2023-04-12T19:20:54;22.33;;;9.70;;
55758;SDS011;41678;52.126;20.664;2023-04-12T19:26:17;32.40;;;13.27;;
55758;SDS011;41678;52.126;20.664;2023-04-12T19:31:37;38.10;;;14.38;;
55758;SDS011;41678;52.126;20.664;2023-04-12T19:36:56;28.52;;;13.60;;
55758;SDS011;41678;52.126;20.664;2023-04-12T19:42:16;33.03;;;14.25;;
55758;SDS011;41678;52.126;20.664;2023-04-12T19:47:36;35.22;;;13.75;;
55758;SDS011;41678;52.126;20.664;2023-04-12T19:53:02;33.13;;;15.50;;
55758;SDS011;41678;52.126;20.664;2023-04-12T19:58:23;40.13;;;16.58;;
55758;SDS011;41678;52.126;20.664;2023-04-12T20:03:43;42.88;;;17.50;;
55758;SDS011;41678;52.126;20.664;2023-04-12T20:09:02;37.47;;;16.88;;
55758;SDS011;41678;52.126;20.664;2023-04-12T20:14:22;41.88;;;18.90;;
55758;SDS011;41678;52.126;20.664;2023-04-12T20:19:41;44.00;;;17.67;;
55758;SDS011;41678;52.126;20.664;2023-04-12T20:25:01;51.28;;;20.27;;
55758;SDS011;41678;52.126;20.664;2023-04-12T20:30:23;47.53;;;20.17;;
55758;SDS011;41678;52.126;20.664;2023-04-12T20:35:44;39.60;;;18.65;;
55758;SDS011;41678;52.126;20.664;2023-04-12T20:41:03;51.80;;;22.88;;
55758;SDS011;41678;52.126;20.664;2023-04-12T20:46:23;62.67;;;23.35;;
55758;SDS011;41678;52.126;20.664;2023-04-12T20:51:45;45.97;;;21.93;;
55758;SDS011;41678;52.126;20.664;2023-04-12T20:57:05;60.70;;;25.15;;
55758;SDS011;41678;52.126;20.664;2023-04-12T21:02:24;59.80;;;25.67;;
55758;SDS011;41678;52.126;20.664;2023-04-12T21:07:43;57.42;;;25.48;;
55758;SDS011;41678;52.126;20.664;2023-04-12T21:13:04;64.47;;;26.70;;
55758;SDS011;41678;52.126;20.664;2023-04-12T21:18:24;59.92;;;26.98;;
55758;SDS011;41678;52.126;20.664;2023-04-12T21:23:43;65.22;;;29.05;;
55758;SDS011;41678;52.126;20.664;2023-04-12T21:29:03;61.95;;;28.27;;
55758;SDS011;41678;52.126;20.664;2023-04-12T21:34:22;79.45;;;35.10;;
55758;SDS011;41678;52.126;20.664;2023-04-12T21:39:41;82.40;;;31.17;;
55758;SDS011;41678;52.126;20.664;2023-04-12T21:45:01;72.70;;;33.03;;
55758;SDS011;41678;52.126;20.664;2023-04-12T21:50:22;77.28;;;32.70;;
55758;SDS011;41678;52.126;20.664;2023-04-12T21:55:42;71.28;;;30.70;;
55758;SDS011;41678;52.126;20.664;2023-04-12T22:01:02;55.13;;;24.27;;
55758;SDS011;41678;52.126;20.664;2023-04-12T22:06:22;58.90;;;26.38;;
55758;SDS011;41678;52.126;20.664;2023-04-12T22:11:42;57.67;;;27.17;;
55758;SDS011;41678;52.126;20.664;2023-04-12T22:17:01;58.65;;;26.17;;
55758;SDS011;41678;52.126;20.664;2023-04-12T22:22:21;56.63;;;24.40;;
55758;SDS011;41678;52.126;20.664;2023-04-12T22:27:42;56.67;;;25.55;;
55758;SDS011;41678;52.126;20.664;2023-04-12T22:33:04;56.22;;;25.15;;
55758;SDS011;41678;52.126;20.664;2023-04-12T22:38:23;63.78;;;23.70;;
55758;SDS011;41678;52.126;20.664;2023-04-12T22:43:44;52.75;;;22.33;;
55758;SDS011;41678;52.126;20.664;2023-04-12T22:49:06;50.13;;;21.05;;
55758;SDS011;41678;52.126;20.664;2023-04-12T22:54:26;51.83;;;21.45;;
55758;SDS011;41678;52.126;20.664;2023-04-12T22:59:45;45.83;;;19.17;;
55758;SDS011;41678;52.126;20.664;2023-04-12T23:05:05;53.08;;;21.65;;
55758;SDS011;41678;52.126;20.664;2023-04-12T23:10:25;42.67;;;18.75;;
55758;SDS011;41678;52.126;20.664;2023-04-12T23:15:45;41.95;;;20.38;;
55758;SDS011;41678;52.126;20.664;2023-04-12T23:21:04;47.20;;;18.33;;
55758;SDS011;41678;52.126;20.664;2023-04-12T23:26:24;41.85;;;18.95;;
55758;SDS011;41678;52.126;20.664;2023-04-12T23:31:45;44.15;;;20.88;;
55758;SDS011;41678;52.126;20.664;2023-04-12T23:37:05;44.30;;;20.83;;
55758;SDS011;41678;52.126;20.664;2023-04-12T23:42:25;47.13;;;20.45;;
55758;SDS011;41678;52.126;20.664;2023-04-12T23:47:45;40.97;;;18.58;;
55758;SDS011;41678;52.126;20.664;2023-04-12T23:53:04;41.92;;;18.67;;
55758;SDS011;41678;52.126;20.664;2023-04-12T23:58:24;39.38;;;19.70;;
